createdAt,value
2018-08-22T00:02:21.954Z,18.10
2018-08-22T00:04:51.536Z,18.00
2018-08-22T00:07:21.917Z,18.00
2018-08-22T00:09:51.928Z,17.90
2018-08-22T00:12:21.826Z,17.90
2018-08-22T00:14:51.564Z,17.90
2018-08-22T00:17:21.940Z,17.90
2018-08-22T00:19:51.515Z,18.00
2018-08-22T00:22:22.527Z,18.00
2018-08-22T00:24:51.894Z,18.00
2018-08-22T00:27:22.077Z,18.00
2018-08-22T00:29:52.366Z,18.00
2018-08-22T00:32:22.465Z,18.00
2018-08-22T00:34:52.335Z,18.10
2018-08-22T00:37:22.531Z,18.10
2018-08-22T00:39:52.367Z,18.00
2018-08-22T00:42:22.385Z,18.00
2018-08-22T00:44:51.979Z,18.20
2018-08-22T00:47:21.847Z,18.20
2018-08-22T00:49:51.652Z,18.00
2018-08-22T00:52:21.423Z,17.90
2018-08-22T00:54:51.713Z,17.80
2018-08-22T00:57:21.944Z,17.70
2018-08-22T00:59:52.346Z,17.60
2018-08-22T01:02:21.934Z,17.50
2018-08-22T01:04:51.618Z,17.50
2018-08-22T01:07:21.829Z,17.40
2018-08-22T01:09:51.755Z,17.40
2018-08-22T01:12:21.442Z,17.40
2018-08-22T01:14:52.187Z,17.40
2018-08-22T01:17:21.855Z,17.50
2018-08-22T01:19:51.612Z,17.50
2018-08-22T01:22:21.793Z,17.50
2018-08-22T01:24:52.104Z,17.50
2018-08-22T01:27:23.351Z,17.50
2018-08-22T01:29:54.925Z,17.50
2018-08-22T01:32:24.654Z,17.50
2018-08-22T01:34:54.524Z,17.50
2018-08-22T01:37:24.189Z,17.40
2018-08-22T01:39:54.496Z,17.40
2018-08-22T01:42:24.050Z,17.30
2018-08-22T01:44:53.666Z,17.20
2018-08-22T01:47:23.940Z,17.20
2018-08-22T01:49:53.702Z,17.20
2018-08-22T01:52:23.326Z,17.10
2018-08-22T01:54:53.405Z,17.10
2018-08-22T01:57:23.154Z,17.00
2018-08-22T01:59:53.132Z,17.00
2018-08-22T02:02:22.822Z,16.90
2018-08-22T02:04:52.420Z,16.90
2018-08-22T02:07:22.462Z,16.80
2018-08-22T02:09:52.115Z,16.70
2018-08-22T02:12:21.736Z,16.70
2018-08-22T02:14:51.325Z,16.70
2018-08-22T02:17:20.936Z,16.60
2018-08-22T02:19:50.829Z,16.60
2018-08-22T02:22:20.814Z,16.50
2018-08-22T02:24:50.428Z,16.50
2018-08-22T02:27:19.982Z,16.40
2018-08-22T02:29:49.826Z,16.40
2018-08-22T02:32:19.374Z,16.30
2018-08-22T02:34:48.788Z,16.20
2018-08-22T02:37:21.270Z,16.20
2018-08-22T02:39:52.487Z,16.20
2018-08-22T02:42:22.550Z,16.30
2018-08-22T02:44:52.674Z,16.20
2018-08-22T02:47:23.095Z,16.10
2018-08-22T02:49:52.562Z,16.00
2018-08-22T02:52:23.033Z,16.00
2018-08-22T02:54:53.200Z,16.00
2018-08-22T02:57:23.338Z,15.90
2018-08-22T02:59:52.782Z,16.00
2018-08-22T03:02:22.278Z,15.90
2018-08-22T03:04:52.324Z,15.80
2018-08-22T03:07:21.924Z,15.80
2018-08-22T03:09:51.466Z,15.80
2018-08-22T03:12:21.624Z,15.80
2018-08-22T03:14:51.216Z,15.70
2018-08-22T03:17:20.874Z,15.70
2018-08-22T03:19:51.070Z,15.70
2018-08-22T03:22:20.800Z,15.70
2018-08-22T03:24:50.350Z,15.70
2018-08-22T03:27:20.429Z,15.70
2018-08-22T03:29:50.417Z,15.70
2018-08-22T03:32:20.698Z,15.70
2018-08-22T03:34:50.888Z,15.70
2018-08-22T03:37:20.656Z,15.70
2018-08-22T03:39:50.468Z,15.60
2018-08-22T03:42:20.561Z,15.60
2018-08-22T03:44:50.551Z,15.60
2018-08-22T03:47:20.984Z,15.60
2018-08-22T03:49:51.305Z,15.50
2018-08-22T03:52:21.026Z,15.50
2018-08-22T03:54:50.678Z,15.40
2018-08-22T03:57:20.314Z,15.40
2018-08-22T03:59:49.979Z,15.50
2018-08-22T04:02:19.890Z,15.40
2018-08-22T04:04:49.838Z,15.40
2018-08-22T04:07:19.411Z,15.40
2018-08-22T04:09:49.129Z,15.30
2018-08-22T04:12:18.632Z,15.30
2018-08-22T04:14:48.214Z,15.30
2018-08-22T04:17:17.796Z,15.40
2018-08-22T04:19:47.498Z,15.40
2018-08-22T04:22:16.856Z,15.40
2018-08-22T04:24:46.542Z,15.50
2018-08-22T04:27:16.590Z,15.60
2018-08-22T04:29:46.516Z,15.60
2018-08-22T04:32:16.294Z,15.70
2018-08-22T04:34:45.902Z,15.80
2018-08-22T04:37:15.731Z,15.80
2018-08-22T04:39:45.716Z,15.90
2018-08-22T04:42:15.284Z,15.90
2018-08-22T04:44:45.802Z,15.90
2018-08-22T04:47:15.756Z,15.90
2018-08-22T04:49:45.497Z,16.00
2018-08-22T04:52:15.886Z,16.00
2018-08-22T04:54:45.661Z,16.00
2018-08-22T04:57:15.480Z,16.00
2018-08-22T04:59:45.502Z,16.10
2018-08-22T05:02:19.607Z,16.10
2018-08-22T05:10:35.104Z,16.10
2018-08-22T05:18:51.440Z,16.20
2018-08-22T05:21:20.891Z,16.20
2018-08-22T05:27:10.281Z,16.30
2018-08-22T05:29:42.312Z,16.40
2018-08-22T05:32:12.526Z,16.50
2018-08-22T05:34:42.132Z,16.60
2018-08-22T05:51:25.903Z,17.10
2018-08-22T06:00:11.981Z,17.50
2018-08-22T06:02:41.820Z,17.60
2018-08-22T06:05:11.793Z,17.70
2018-08-22T06:07:40.792Z,17.80
2018-08-22T06:10:09.739Z,17.90
2018-08-22T06:12:39.610Z,18.10
2018-08-22T06:15:08.724Z,18.20
2018-08-22T06:17:38.476Z,18.30
2018-08-22T06:20:07.544Z,18.40
2018-08-22T06:22:36.666Z,18.60
2018-08-22T06:25:05.625Z,18.70
2018-08-22T06:27:35.711Z,18.80
2018-08-22T06:30:05.673Z,19.00
2018-08-22T06:32:34.730Z,19.10
2018-08-22T06:35:03.781Z,19.30
2018-08-22T06:37:32.776Z,19.40
2018-08-22T06:40:02.662Z,19.50
2018-08-22T06:42:32.234Z,19.70
2018-08-22T06:45:02.281Z,19.90
2018-08-22T06:47:31.276Z,20.00
2018-08-22T06:50:00.335Z,20.20
2018-08-22T06:52:29.704Z,20.30
2018-08-22T06:54:58.654Z,20.50
2018-08-22T06:57:28.294Z,20.60
2018-08-22T06:59:59.041Z,20.80
2018-08-22T07:02:29.236Z,21.00
2018-08-22T07:04:58.187Z,21.10
2018-08-22T07:07:27.122Z,21.50
2018-08-22T07:09:56.857Z,21.60
2018-08-22T07:12:25.809Z,21.90
2018-08-22T07:14:56.650Z,22.00
2018-08-22T07:17:25.605Z,22.10
2018-08-22T07:19:55.389Z,22.30
2018-08-22T07:22:33.146Z,22.40
2018-08-22T07:25:20.953Z,22.50
2018-08-22T07:28:19.660Z,22.50
2018-08-22T07:30:48.611Z,22.60
2018-08-22T07:33:19.679Z,22.70
2018-08-22T07:38:28.033Z,22.90
2018-08-22T07:43:53.134Z,23.10
2018-08-22T07:46:21.982Z,23.20
2018-08-22T07:48:53.313Z,23.40
2018-08-22T07:51:23.244Z,23.50
2018-08-22T07:54:12.805Z,23.60
2018-08-22T07:56:44.349Z,23.70
2018-08-22T07:59:15.559Z,23.90
2018-08-22T08:01:54.275Z,24.10
2018-08-22T08:04:23.250Z,24.20
2018-08-22T08:06:54.250Z,24.20
2018-08-22T08:09:23.963Z,24.40
2018-08-22T08:11:53.643Z,24.50
2018-08-22T08:14:23.881Z,24.70
2018-08-22T08:16:54.461Z,24.80
2018-08-22T08:19:43.401Z,24.80
2018-08-22T08:22:12.375Z,24.90
2018-08-22T08:24:52.861Z,24.90
2018-08-22T08:27:22.759Z,25.00
2018-08-22T08:29:51.993Z,25.00
2018-08-22T08:32:22.393Z,25.10
2018-08-22T08:34:53.963Z,25.20
2018-08-22T08:37:24.532Z,25.10
2018-08-22T08:39:54.322Z,25.20
2018-08-22T08:42:25.155Z,25.20
2018-08-22T08:44:54.521Z,25.30
2018-08-22T08:47:25.869Z,25.40
2018-08-22T08:50:00.626Z,25.50
2018-08-22T08:52:30.428Z,25.50
2018-08-22T08:54:59.709Z,25.60
2018-08-22T08:57:29.630Z,25.80
2018-08-22T09:00:00.782Z,25.90
2018-08-22T09:02:30.244Z,26.00
2018-08-22T09:05:07.539Z,25.90
2018-08-22T09:07:39.439Z,26.00
2018-08-22T09:10:09.209Z,25.90
2018-08-22T09:12:55.300Z,26.10
2018-08-22T09:15:26.754Z,26.30
2018-08-22T09:17:56.010Z,26.30
2018-08-22T09:20:27.725Z,26.40
2018-08-22T09:22:56.809Z,26.60
2018-08-22T09:25:25.849Z,26.80
2018-08-22T09:27:58.909Z,26.90
2018-08-22T09:30:28.650Z,26.90
2018-08-22T09:33:01.042Z,27.00
2018-08-22T09:35:32.654Z,27.40
2018-08-22T09:38:03.897Z,28.20
2018-08-22T09:40:35.279Z,29.00
2018-08-22T09:43:04.543Z,29.40
2018-08-22T09:45:34.603Z,30.00
2018-08-22T09:48:04.684Z,30.30
2018-08-22T09:50:33.921Z,30.60
2018-08-22T09:53:05.832Z,31.00
2018-08-22T09:55:47.927Z,31.30
2018-08-22T09:58:17.019Z,31.70
2018-08-22T10:00:51.873Z,31.80
2018-08-22T10:03:41.685Z,31.80
2018-08-22T10:06:10.933Z,32.30
2018-08-22T10:08:41.917Z,32.80
2018-08-22T10:11:11.831Z,32.90
2018-08-22T10:13:40.757Z,33.10
2018-08-22T10:16:13.395Z,32.90
2018-08-22T10:18:46.734Z,33.20
2018-08-22T10:21:35.183Z,34.10
2018-08-22T10:24:06.053Z,34.20
2018-08-22T10:26:36.488Z,34.00
2018-08-22T10:29:06.370Z,33.60
2018-08-22T10:31:48.563Z,34.00
2018-08-22T10:34:17.438Z,34.50
2018-08-22T10:36:46.373Z,34.70
2018-08-22T10:39:21.487Z,34.90
2018-08-22T10:41:50.964Z,35.50
2018-08-22T10:44:21.162Z,35.70
2018-08-22T10:46:51.229Z,36.00
2018-08-22T10:49:20.295Z,36.40
2018-08-22T10:51:50.460Z,36.70
2018-08-22T10:54:19.458Z,36.90
2018-08-22T10:56:50.274Z,36.70
2018-08-22T10:59:19.309Z,36.40
2018-08-22T11:01:48.875Z,36.50
2018-08-22T11:04:17.819Z,36.50
2018-08-22T11:06:46.999Z,36.90
2018-08-22T11:09:17.028Z,37.40
2018-08-22T11:11:47.016Z,37.40
2018-08-22T11:14:16.090Z,37.30
2018-08-22T11:16:45.139Z,36.90
2018-08-22T11:19:14.550Z,36.60
2018-08-22T11:22:05.721Z,36.40
2018-08-22T11:24:45.829Z,36.90
2018-08-22T11:27:26.544Z,37.70
2018-08-22T11:30:06.638Z,37.70
2018-08-22T11:32:48.790Z,37.60
2018-08-22T11:35:16.333Z,37.90
2018-08-22T11:37:49.005Z,38.10
2018-08-22T11:40:17.931Z,37.50
2018-08-22T11:42:47.656Z,37.20
2018-08-22T11:47:51.786Z,37.30
2018-08-22T11:50:20.868Z,37.60
2018-08-22T11:52:51.595Z,38.10
2018-08-22T11:55:20.684Z,38.40
2018-08-22T11:57:51.316Z,37.90
2018-08-22T12:00:21.671Z,38.40
2018-08-22T12:02:50.720Z,38.70
2018-08-22T12:05:20.526Z,38.60
2018-08-22T12:07:54.585Z,39.00
2018-08-22T12:10:32.393Z,39.20
2018-08-22T12:13:03.355Z,38.60
2018-08-22T12:15:34.225Z,38.80
2018-08-22T12:18:03.754Z,39.40
2018-08-22T12:20:32.594Z,39.30
2018-08-22T12:23:02.014Z,39.10
2018-08-22T12:28:58.311Z,40.00
2018-08-22T12:31:27.769Z,39.30
2018-08-22T12:34:04.399Z,39.40
2018-08-22T12:36:33.357Z,38.40
2018-08-22T12:39:02.278Z,36.90
2018-08-22T12:41:31.203Z,37.20
2018-08-22T12:44:04.023Z,38.30
2018-08-22T12:46:33.041Z,38.70
2018-08-22T12:49:03.546Z,38.80
2018-08-22T12:51:32.431Z,39.30
2018-08-22T12:54:02.712Z,39.80
2018-08-22T12:56:31.797Z,40.00
2018-08-22T12:59:00.629Z,39.90
2018-08-22T13:01:29.761Z,39.60
2018-08-22T13:04:01.160Z,39.90
2018-08-22T13:06:33.699Z,39.60
2018-08-22T13:09:02.805Z,38.00
2018-08-22T13:11:38.951Z,36.60
2018-08-22T13:14:08.826Z,36.50
2018-08-22T13:16:38.382Z,37.30
2018-08-22T13:19:08.556Z,37.70
2018-08-22T13:21:42.299Z,38.00
2018-08-22T13:24:13.083Z,37.70
2018-08-22T13:26:42.171Z,37.40
2018-08-22T13:29:11.328Z,37.90
2018-08-22T13:31:40.434Z,38.20
2018-08-22T13:34:09.433Z,38.90
2018-08-22T13:36:38.433Z,39.60
2018-08-22T13:39:09.473Z,39.30
2018-08-22T13:41:38.522Z,38.20
2018-08-22T13:44:09.340Z,37.80
2018-08-22T13:46:39.636Z,38.20
2018-08-22T13:49:15.822Z,37.60
2018-08-22T13:51:55.302Z,37.50
2018-08-22T13:54:26.534Z,38.50
2018-08-22T13:56:56.283Z,39.50
2018-08-22T13:59:25.225Z,40.50
2018-08-22T14:01:54.350Z,41.00
2018-08-22T14:04:24.207Z,40.60
2018-08-22T14:06:53.187Z,40.30
2018-08-22T14:09:23.491Z,39.40
2018-08-22T14:11:54.305Z,39.30
2018-08-22T14:14:24.135Z,39.20
2018-08-22T14:16:53.159Z,39.20
2018-08-22T14:19:24.551Z,39.50
2018-08-22T14:21:54.569Z,40.10
2018-08-22T14:24:26.499Z,40.50
2018-08-22T14:26:57.041Z,40.90
2018-08-22T14:29:26.769Z,40.50
2018-08-22T14:31:55.805Z,40.40
2018-08-22T14:34:28.636Z,40.40
2018-08-22T14:36:57.710Z,40.70
2018-08-22T14:39:29.631Z,41.30
2018-08-22T14:42:04.527Z,41.80
2018-08-22T14:44:36.469Z,41.60
2018-08-22T14:47:06.083Z,40.50
2018-08-22T14:49:35.867Z,40.40
2018-08-22T14:52:04.936Z,40.30
2018-08-22T14:54:33.832Z,40.40
2018-08-22T14:57:05.704Z,40.30
2018-08-22T14:59:42.069Z,39.30
2018-08-22T15:02:24.246Z,38.30
2018-08-22T15:04:55.783Z,38.60
2018-08-22T15:07:26.652Z,38.70
2018-08-22T15:09:55.896Z,38.50
2018-08-22T15:12:25.787Z,38.70
2018-08-22T15:14:55.074Z,38.40
2018-08-22T15:17:26.079Z,38.50
2018-08-22T15:19:56.707Z,38.50
2018-08-22T15:22:28.891Z,38.80
2018-08-22T15:24:57.974Z,38.50
2018-08-22T15:27:27.915Z,37.50
2018-08-22T15:29:58.615Z,37.20
2018-08-22T15:32:30.604Z,37.60
2018-08-22T15:35:00.377Z,37.50
2018-08-22T15:37:32.855Z,37.00
2018-08-22T15:40:03.985Z,36.20
2018-08-22T15:42:33.113Z,36.10
2018-08-22T15:45:05.371Z,36.60
2018-08-22T15:47:35.484Z,36.90
2018-08-22T15:50:05.963Z,37.40
2018-08-22T15:52:35.686Z,37.30
2018-08-22T15:55:14.960Z,36.80
2018-08-22T15:57:57.270Z,37.20
2018-08-22T16:00:41.273Z,37.20
2018-08-22T16:03:13.288Z,37.20
2018-08-22T16:05:43.941Z,37.30
2018-08-22T16:08:13.671Z,37.90
2018-08-22T16:10:51.242Z,37.70
2018-08-22T16:13:26.581Z,38.00
2018-08-22T16:16:04.702Z,37.50
2018-08-22T16:18:35.001Z,37.60
2018-08-22T16:21:06.597Z,36.90
2018-08-22T16:23:36.568Z,36.70
2018-08-22T16:26:06.159Z,36.70
2018-08-22T16:28:56.687Z,36.30
2018-08-22T16:31:59.900Z,35.50
2018-08-22T16:34:33.378Z,34.90
2018-08-22T16:37:03.595Z,34.20
2018-08-22T16:39:46.514Z,33.50
2018-08-22T16:42:19.158Z,33.30
2018-08-22T16:44:48.088Z,33.20
2018-08-22T16:47:17.203Z,33.20
2018-08-22T16:49:46.285Z,33.60
2018-08-22T16:52:16.624Z,34.00
2018-08-22T16:54:45.698Z,34.30
2018-08-22T16:57:16.728Z,34.10
2018-08-22T16:59:46.103Z,33.90
2018-08-22T17:02:20.357Z,33.80
2018-08-22T17:04:59.093Z,33.90
2018-08-22T17:07:32.659Z,33.80
2018-08-22T17:10:09.442Z,33.60
2018-08-22T17:21:20.240Z,31.90
2018-08-22T17:23:58.851Z,31.40
2018-08-22T17:26:30.370Z,31.00
2018-08-22T17:29:08.491Z,30.60
2018-08-22T17:31:40.605Z,30.20
2018-08-22T17:34:21.495Z,29.90
2018-08-22T17:37:02.982Z,29.70
2018-08-22T17:39:34.735Z,29.50
2018-08-22T17:42:06.565Z,29.50
2018-08-22T17:44:37.977Z,29.30
2018-08-22T17:47:09.124Z,29.20
2018-08-22T17:49:40.268Z,29.00
2018-08-22T17:52:12.740Z,28.70
2018-08-22T17:54:43.941Z,28.40
2018-08-22T17:57:26.314Z,28.30
2018-08-22T17:59:58.667Z,28.20
2018-08-22T18:02:29.955Z,28.00
2018-08-22T18:05:04.795Z,27.80
2018-08-22T18:07:40.542Z,27.60
2018-08-22T18:10:13.233Z,27.40
2018-08-22T18:12:45.043Z,27.30
2018-08-22T18:15:15.781Z,27.20
2018-08-22T18:17:49.201Z,27.20
2018-08-22T18:20:21.041Z,27.20
2018-08-22T18:22:52.440Z,27.10
2018-08-22T18:25:23.369Z,27.00
2018-08-22T18:27:59.055Z,26.80
2018-08-22T18:30:30.345Z,26.70
2018-08-22T18:33:01.344Z,26.60
2018-08-22T18:35:33.534Z,26.50
2018-08-22T18:38:04.437Z,26.40
2018-08-22T18:40:36.264Z,26.20
2018-08-22T18:43:08.466Z,26.10
2018-08-22T18:45:48.846Z,26.00
2018-08-22T18:48:19.996Z,25.90
2018-08-22T18:50:50.835Z,25.70
2018-08-22T18:53:21.355Z,25.60
2018-08-22T18:55:59.502Z,25.50
2018-08-22T18:58:32.307Z,25.40
2018-08-22T19:01:03.795Z,25.30
2018-08-22T19:03:32.847Z,25.10
2018-08-22T19:06:03.045Z,25.00
2018-08-22T19:08:39.737Z,25.00
2018-08-22T19:11:09.638Z,25.00
2018-08-22T19:13:40.788Z,24.90
2018-08-22T19:16:11.314Z,24.80
2018-08-22T19:18:41.664Z,24.80
2018-08-22T19:21:12.345Z,24.70
2018-08-22T19:23:42.564Z,24.60
2018-08-22T19:26:12.414Z,24.50
2018-08-22T19:28:55.390Z,24.50
2018-08-22T19:31:26.168Z,24.40
2018-08-22T19:33:56.830Z,24.30
2018-08-22T19:36:27.154Z,24.20
2018-08-22T19:38:57.368Z,24.20
2018-08-22T19:41:31.717Z,24.20
2018-08-22T19:44:02.116Z,24.10
2018-08-22T19:46:31.939Z,24.10
2018-08-22T19:49:02.509Z,24.10
2018-08-22T19:51:32.566Z,24.00
2018-08-22T19:54:05.141Z,23.90
2018-08-22T19:56:35.372Z,23.80
2018-08-22T19:59:06.465Z,23.70
2018-08-22T20:01:38.403Z,23.70
2018-08-22T20:04:08.522Z,23.60
2018-08-22T20:06:39.222Z,23.50
2018-08-22T20:09:13.425Z,23.50
2018-08-22T20:11:44.375Z,23.50
2018-08-22T20:14:14.515Z,23.40
2018-08-22T20:16:45.141Z,23.30
2018-08-22T20:19:15.332Z,23.20
2018-08-22T20:21:46.651Z,23.10
2018-08-22T20:27:09.759Z,23.00
2018-08-22T20:38:11.788Z,22.70
2018-08-22T20:41:45.787Z,22.70
2018-08-22T20:44:18.146Z,22.70
2018-08-22T20:46:49.750Z,22.70
2018-08-22T20:49:21.270Z,22.60
2018-08-22T20:51:51.686Z,22.60
2018-08-22T20:54:24.458Z,22.50
2018-08-22T21:02:27.822Z,22.00
2018-08-22T21:10:43.661Z,21.70
2018-08-22T21:14:14.458Z,21.80
2018-08-22T21:16:45.032Z,21.90
2018-08-22T21:22:28.006Z,21.70
2018-08-22T21:25:00.163Z,21.70
2018-08-22T21:27:30.543Z,21.60
2018-08-22T21:30:05.436Z,21.60
2018-08-22T21:32:35.256Z,21.50
2018-08-22T21:35:17.239Z,21.50
2018-08-22T21:43:21.730Z,21.50
2018-08-22T21:45:52.656Z,21.50
2018-08-22T21:54:51.589Z,21.40
2018-08-22T22:00:13.500Z,21.20
2018-08-22T22:02:45.326Z,21.20
2018-08-22T22:05:15.684Z,21.10
2018-08-22T22:07:46.453Z,21.00
2018-08-22T22:10:20.521Z,21.00
2018-08-22T22:12:51.711Z,21.00
2018-08-22T22:27:22.277Z,20.70
2018-08-22T22:30:06.496Z,20.50
2018-08-22T22:32:36.884Z,20.10
2018-08-22T22:47:45.664Z,19.80
2018-08-22T22:53:08.658Z,19.20
2018-08-22T23:01:24.770Z,19.20
2018-08-22T23:03:55.774Z,19.10
2018-08-22T23:06:49.348Z,18.90
2018-08-22T23:17:47.858Z,18.50
2018-08-22T23:32:00.666Z,18.30
2018-08-22T23:34:34.540Z,18.30
2018-08-22T23:42:50.235Z,18.40
2018-08-22T23:48:14.881Z,18.20
